PWSweather.com
Personal Weather Stations
Station Observations
KNCCHINA3
Red Tractor Trail, China Grove, NC 28023

Red Tractor TrailChina Grove, NC 28023

Lat: 35.59751, Lon: -80.60201

Elevation: 800

Station Type: Oregon Scientific WMR 968

http://www.joesweathergarage.com

High Low Average
Temperature 58.4°F14.7°C 31.4°F-0.3°C 43.9°F6.6°C
Dew Point 34.5°F1.4°C 23.9°F-4.5°C 29.9°F-1.2°C
Winds 18.8 mph 30.3 kmh Calm Calm 6.0 mph E9.7 kmh E
Wind Gusts 26.0 mph41.8 kmh -- 11.0 mph17.7 kmh
Humidity 98% 36% 62%
Pressure 30.06 in1017.9 mb 29.85 in1010.8 mb -
Precipitation 0.04 in1.0 mm - -
Hour Temp Dew Point Humidity Winds Wind Gusts Pressure Precip Precip Rate Daily Precip Total
12:03 AM 36.0°F2.2°C 35.4°F1.9°C 98% 20.0 mph NE32.2 kmh NE 30.4 mph48.9 kmh 29.85 in1010.8 mb 0.00 in0.0 mm 0.00 in0.0 mm 0.00 in0.0 mm
12:08 AM 35.9°F2.2°C 35.3°F1.8°C 98% 13.7 mph NE22.0 kmh NE 30.4 mph48.9 kmh 29.85 in1010.8 mb 0.00 in0.0 mm 0.00 in0.0 mm 0.00 in0.0 mm
12:13 AM 35.7°F2.1°C 35.1°F1.7°C 98% 13.8 mph NE22.2 kmh NE 26.0 mph41.8 kmh 29.85 in1010.8 mb 0.00 in0.0 mm 0.00 in0.0 mm 0.00 in0.0 mm
12:22 AM 35.5°F1.9°C 34.9°F1.6°C 98% 18.2 mph NE29.3 kmh NE 22.8 mph36.7 kmh 29.85 in1010.8 mb 0.00 in0.0 mm 0.00 in0.0 mm 0.00 in0.0 mm
12:27 AM 35.3°F1.8°C 34.7°F1.5°C 98% 15.8 mph NE25.4 kmh NE 29.0 mph46.7 kmh 29.85 in1010.8 mb 0.00 in0.0 mm 0.00 in0.0 mm 0.00 in0.0 mm
12:33 AM 35.0°F1.7°C 34.4°F1.3°C 98% 20.5 mph NE33.0 kmh NE 29.0 mph46.7 kmh 29.85 in1010.8 mb 0.00 in0.0 mm 0.00 in0.0 mm 0.00 in0.0 mm
12:38 AM 34.8°F1.6°C 34.2°F1.2°C 98% 12.4 mph NNE20.0 kmh NNE 26.4 mph42.5 kmh 29.88 in1011.9 mb 0.00 in0.0 mm 0.00 in0.0 mm 0.00 in0.0 mm
12:44 AM 34.6°F1.4°C 34.0°F1.1°C 98% 12.5 mph NE20.1 kmh NE 25.6 mph41.2 kmh 29.88 in1011.9 mb 0.00 in0.0 mm 0.00 in0.0 mm 0.00 in0.0 mm
12:49 AM 34.4°F1.3°C 33.8°F1.0°C 98% 12.0 mph NE19.3 kmh NE 17.8 mph28.6 kmh 29.88 in1011.9 mb 0.00 in0.0 mm 0.00 in0.0 mm 0.00 in0.0 mm
12:54 AM 34.4°F1.3°C 33.8°F1.0°C 98% 10.4 mph NE16.7 kmh NE 17.8 mph28.6 kmh 29.85 in1010.8 mb 0.00 in0.0 mm 0.00 in0.0 mm 0.00 in0.0 mm
12:59 AM 34.2°F1.2°C 33.6°F0.9°C 98% 9.9 mph NE15.9 kmh NE 15.2 mph24.5 kmh 29.85 in1010.8 mb 0.00 in0.0 mm 0.00 in0.0 mm 0.00 in0.0 mm
01:04 AM 34.2°F1.2°C 33.6°F0.9°C 98% 10.3 mph NE16.6 kmh NE 17.8 mph28.6 kmh 29.85 in1010.8 mb 0.00 in0.0 mm 0.00 in0.0 mm 0.00 in0.0 mm
01:09 AM 34.2°F1.2°C 33.6°F0.9°C 98% 12.0 mph NE19.3 kmh NE 17.8 mph28.6 kmh 29.88 in1011.9 mb 0.00 in0.0 mm 0.00 in0.0 mm 0.00 in0.0 mm
01:15 AM 34.2°F1.2°C 33.6°F0.9°C 98% 6.2 mph NE10.0 kmh NE 17.4 mph28.0 kmh 29.88 in1011.9 mb 0.00 in0.0 mm 0.00 in0.0 mm 0.00 in0.0 mm
01:20 AM 34.2°F1.2°C 33.6°F0.9°C 98% 6.0 mph ENE9.7 kmh ENE 11.6 mph18.7 kmh 29.88 in1011.9 mb 0.00 in0.0 mm 0.00 in0.0 mm 0.00 in0.0 mm
01:26 AM 34.2°F1.2°C 33.6°F0.9°C 98% 8.7 mph NE14.0 kmh NE 11.6 mph18.7 kmh 29.88 in1011.9 mb 0.00 in0.0 mm 0.00 in0.0 mm 0.00 in0.0 mm
01:31 AM 34.4°F1.3°C 33.8°F1.0°C 98% 6.3 mph NE10.1 kmh NE 11.2 mph18.0 kmh 29.88 in1011.9 mb 0.00 in0.0 mm 0.00 in0.0 mm 0.00 in0.0 mm
01:36 AM 34.4°F1.3°C 33.8°F1.0°C 98% 10.6 mph NE17.1 kmh NE 13.0 mph20.9 kmh 29.88 in1011.9 mb 0.00 in0.0 mm 0.00 in0.0 mm 0.00 in0.0 mm
01:41 AM 34.6°F1.4°C 34.0°F1.1°C 98% 7.0 mph ENE11.3 kmh ENE 13.0 mph20.9 kmh 29.88 in1011.9 mb 0.00 in0.0 mm 0.00 in0.0 mm 0.00 in0.0 mm
01:47 AM 34.6°F1.4°C 34.0°F1.1°C 98% 6.1 mph NE9.8 kmh NE 11.6 mph18.7 kmh 29.88 in1011.9 mb 0.00 in0.0 mm 0.00 in0.0 mm 0.00 in0.0 mm
01:52 AM 34.6°F1.4°C 34.0°F1.1°C 98% 7.8 mph NE12.6 kmh NE 14.8 mph23.8 kmh 29.88 in1011.9 mb 0.00 in0.0 mm 0.00 in0.0 mm 0.00 in0.0 mm
01:57 AM 34.4°F1.3°C 33.8°F1.0°C 98% 14.4 mph NE23.2 kmh NE 21.4 mph34.4 kmh 29.88 in1011.9 mb 0.04 in1.0 mm 0.48 in12.2 mm 0.04 in1.0 mm
02:02 AM 34.6°F1.4°C 34.0°F1.1°C 98% 10.4 mph NE16.7 kmh NE 21.4 mph34.4 kmh 29.88 in1011.9 mb 0.04 in1.0 mm 0.00 in0.0 mm 0.04 in1.0 mm
02:07 AM 34.6°F1.4°C 34.0°F1.1°C 98% 8.8 mph ENE14.2 kmh ENE 17.0 mph27.4 kmh 29.88 in1011.9 mb 0.04 in1.0 mm 0.00 in0.0 mm 0.04 in1.0 mm
02:12 AM 34.6°F1.4°C 34.0°F1.1°C 98% 11.3 mph NE18.2 kmh NE 16.2 mph26.1 kmh 29.88 in1011.9 mb 0.04 in1.0 mm 0.00 in0.0 mm 0.04 in1.0 mm
02:17 AM 34.6°F1.4°C 34.0°F1.1°C 98% 5.2 mph NE8.4 kmh NE 15.6 mph25.1 kmh 29.88 in1011.9 mb 0.04 in1.0 mm 0.00 in0.0 mm 0.04 in1.0 mm
02:22 AM 34.6°F1.4°C 34.0°F1.1°C 98% 7.0 mph NE11.3 kmh NE 15.6 mph25.1 kmh 29.88 in1011.9 mb 0.04 in1.0 mm 0.00 in0.0 mm 0.04 in1.0 mm
02:28 AM 34.6°F1.4°C 34.0°F1.1°C 98% 9.6 mph NE15.4 kmh NE 13.4 mph21.6 kmh 29.88 in1011.9 mb 0.04 in1.0 mm 0.00 in0.0 mm 0.04 in1.0 mm
02:33 AM 34.6°F1.4°C 34.0°F1.1°C 98% 11.7 mph NE18.8 kmh NE 14.8 mph23.8 kmh 29.88 in1011.9 mb 0.04 in1.0 mm 0.00 in0.0 mm 0.04 in1.0 mm
02:38 AM 34.6°F1.4°C 34.0°F1.1°C 98% 7.4 mph NNE11.9 kmh NNE 14.8 mph23.8 kmh 29.88 in1011.9 mb 0.04 in1.0 mm 0.00 in0.0 mm 0.04 in1.0 mm
02:43 AM 34.6°F1.4°C 34.0°F1.1°C 98% 8.9 mph NNE14.3 kmh NNE 12.0 mph19.3 kmh 29.88 in1011.9 mb 0.04 in1.0 mm 0.00 in0.0 mm 0.04 in1.0 mm
02:49 AM 34.8°F1.6°C 34.2°F1.2°C 98% 7.4 mph NE11.9 kmh NE 11.6 mph18.7 kmh 29.88 in1011.9 mb 0.04 in1.0 mm 0.00 in0.0 mm 0.04 in1.0 mm
02:54 AM 34.8°F1.6°C 34.2°F1.2°C 98% 8.2 mph NE13.2 kmh NE 13.0 mph20.9 kmh 29.88 in1011.9 mb 0.00 in0.0 mm 0.00 in0.0 mm 0.04 in1.0 mm
02:59 AM 34.8°F1.6°C 34.2°F1.2°C 98% 8.5 mph NE13.7 kmh NE 13.8 mph22.2 kmh 29.88 in1011.9 mb 0.00 in0.0 mm 0.00 in0.0 mm 0.04 in1.0 mm
03:05 AM 34.8°F1.6°C 34.2°F1.2°C 98% 8.5 mph NE13.7 kmh NE 13.8 mph22.2 kmh 29.88 in1011.9 mb 0.00 in0.0 mm 0.00 in0.0 mm 0.04 in1.0 mm
03:10 AM 34.8°F1.6°C 34.2°F1.2°C 98% 7.7 mph NNE12.4 kmh NNE 13.0 mph20.9 kmh 29.88 in1011.9 mb 0.00 in0.0 mm 0.00 in0.0 mm 0.04 in1.0 mm
03:15 AM 34.8°F1.6°C 34.2°F1.2°C 98% 11.4 mph NE18.3 kmh NE 16.2 mph26.1 kmh 29.88 in1011.9 mb 0.00 in0.0 mm 0.00 in0.0 mm 0.04 in1.0 mm
03:20 AM 34.8°F1.6°C 34.2°F1.2°C 98% 6.5 mph NNE10.5 kmh NNE 16.2 mph26.1 kmh 29.88 in1011.9 mb 0.00 in0.0 mm 0.00 in0.0 mm 0.04 in1.0 mm
03:25 AM 34.8°F1.6°C 34.2°F1.2°C 98% 9.5 mph N15.3 kmh N 15.2 mph24.5 kmh 29.88 in1011.9 mb 0.00 in0.0 mm 0.00 in0.0 mm 0.04 in1.0 mm
03:30 AM 34.8°F1.6°C 34.2°F1.2°C 98% 10.7 mph NE17.2 kmh NE 15.2 mph24.5 kmh 29.88 in1011.9 mb 0.00 in0.0 mm 0.00 in0.0 mm 0.04 in1.0 mm
03:35 AM 34.6°F1.4°C 34.0°F1.1°C 98% 5.4 mph NE8.7 kmh NE 13.4 mph21.6 kmh 29.88 in1011.9 mb 0.00 in0.0 mm 0.00 in0.0 mm 0.04 in1.0 mm
03:42 AM 34.6°F1.4°C 34.0°F1.1°C 98% 7.4 mph NE11.9 kmh NE 15.6 mph25.1 kmh 29.88 in1011.9 mb 0.00 in0.0 mm 0.00 in0.0 mm 0.04 in1.0 mm
03:47 AM 34.6°F1.4°C 34.0°F1.1°C 98% 5.0 mph ENE8.0 kmh ENE 15.6 mph25.1 kmh 29.88 in1011.9 mb 0.00 in0.0 mm 0.00 in0.0 mm 0.04 in1.0 mm
03:52 AM 34.6°F1.4°C 34.0°F1.1°C 98% 7.0 mph NNE11.3 kmh NNE 11.2 mph18.0 kmh 29.88 in1011.9 mb 0.00 in0.0 mm 0.00 in0.0 mm 0.04 in1.0 mm
03:57 AM 34.6°F1.4°C 34.0°F1.1°C 98% 6.7 mph NE10.8 kmh NE 11.2 mph18.0 kmh 29.88 in1011.9 mb 0.00 in0.0 mm 0.00 in0.0 mm 0.04 in1.0 mm
04:04 AM 34.6°F1.4°C 34.0°F1.1°C 98% 8.8 mph NE14.2 kmh NE 11.6 mph18.7 kmh 29.88 in1011.9 mb 0.00 in0.0 mm 0.00 in0.0 mm 0.04 in1.0 mm
04:09 AM 34.6°F1.4°C 34.0°F1.1°C 98% 8.7 mph NE14.0 kmh NE 11.6 mph18.7 kmh 29.88 in1011.9 mb 0.00 in0.0 mm 0.00 in0.0 mm 0.04 in1.0 mm
04:14 AM 34.6°F1.4°C 34.0°F1.1°C 98% 7.0 mph NNE11.3 kmh NNE 11.6 mph18.7 kmh 29.88 in1011.9 mb 0.00 in0.0 mm 0.00 in0.0 mm 0.04 in1.0 mm
04:19 AM 34.8°F1.6°C 34.2°F1.2°C 98% 9.5 mph NE15.3 kmh NE 11.6 mph18.7 kmh 29.88 in1011.9 mb 0.00 in0.0 mm 0.00 in0.0 mm 0.04 in1.0 mm
04:24 AM 34.8°F1.6°C 34.2°F1.2°C 98% 3.4 mph NE5.5 kmh NE 11.6 mph18.7 kmh 29.88 in1011.9 mb 0.00 in0.0 mm 0.00 in0.0 mm 0.04 in1.0 mm
04:30 AM 34.8°F1.6°C 34.2°F1.2°C 98% 7.5 mph NE12.1 kmh NE 11.6 mph18.7 kmh 29.88 in1011.9 mb 0.00 in0.0 mm 0.00 in0.0 mm 0.04 in1.0 mm
04:35 AM 34.8°F1.6°C 34.2°F1.2°C 98% 6.3 mph NNE10.1 kmh NNE 14.8 mph23.8 kmh 29.88 in1011.9 mb 0.00 in0.0 mm 0.00 in0.0 mm 0.04 in1.0 mm
04:40 AM 34.6°F1.4°C 34.0°F1.1°C 98% 7.4 mph NNE11.9 kmh NNE 14.8 mph23.8 kmh 29.88 in1011.9 mb 0.00 in0.0 mm 0.00 in0.0 mm 0.04 in1.0 mm
04:46 AM 34.4°F1.3°C 33.8°F1.0°C 98% 8.6 mph NE13.8 kmh NE 14.8 mph23.8 kmh 29.88 in1011.9 mb 0.00 in0.0 mm 0.00 in0.0 mm 0.04 in1.0 mm
04:51 AM 34.2°F1.2°C 33.6°F0.9°C 98% 7.7 mph N12.4 kmh N 11.2 mph18.0 kmh 29.88 in1011.9 mb 0.00 in0.0 mm 0.00 in0.0 mm 0.04 in1.0 mm
04:56 AM 34.2°F1.2°C 33.6°F0.9°C 98% 8.4 mph NNE13.5 kmh NNE 12.0 mph19.3 kmh 29.91 in1012.9 mb 0.00 in0.0 mm 0.00 in0.0 mm 0.04 in1.0 mm
05:01 AM 34.2°F1.2°C 33.6°F0.9°C 98% 7.1 mph N11.4 kmh N 14.8 mph23.8 kmh 29.91 in1012.9 mb 0.00 in0.0 mm 0.00 in0.0 mm 0.04 in1.0 mm
05:06 AM 34.2°F1.2°C 33.6°F0.9°C 98% 9.4 mph N15.1 kmh N 14.8 mph23.8 kmh 29.91 in1012.9 mb 0.00 in0.0 mm 0.00 in0.0 mm 0.04 in1.0 mm
05:11 AM 34.1°F1.2°C 33.5°F0.8°C 98% 10.5 mph N16.9 kmh N 17.0 mph27.4 kmh 29.91 in1012.9 mb 0.00 in0.0 mm 0.00 in0.0 mm 0.04 in1.0 mm
05:16 AM 34.1°F1.2°C 33.5°F0.8°C 98% 6.1 mph N9.8 kmh N 17.0 mph27.4 kmh 29.91 in1012.9 mb 0.00 in0.0 mm 0.00 in0.0 mm 0.04 in1.0 mm
05:21 AM 33.9°F1.1°C 33.3°F0.7°C 98% 11.3 mph N18.2 kmh N 17.0 mph27.4 kmh 29.91 in1012.9 mb 0.00 in0.0 mm 0.00 in0.0 mm 0.04 in1.0 mm
05:26 AM 33.9°F1.1°C 33.1°F0.6°C 97% 12.0 mph NNE19.3 kmh NNE 18.4 mph29.6 kmh 29.91 in1012.9 mb 0.00 in0.0 mm 0.00 in0.0 mm 0.04 in1.0 mm
05:31 AM 33.7°F0.9°C 32.3°F0.2°C 95% 10.0 mph NNE16.1 kmh NNE 18.4 mph29.6 kmh 29.91 in1012.9 mb 0.00 in0.0 mm 0.00 in0.0 mm 0.04 in1.0 mm
05:37 AM 33.5°F0.8°C 31.9°F-0.1°C 94% 8.9 mph NNE14.3 kmh NNE 16.2 mph26.1 kmh 29.91 in1012.9 mb 0.00 in0.0 mm 0.00 in0.0 mm 0.04 in1.0 mm
05:42 AM 33.5°F0.8°C 31.6°F-0.2°C 93% 7.3 mph N11.7 kmh N 16.2 mph26.1 kmh 29.91 in1012.9 mb 0.00 in0.0 mm 0.00 in0.0 mm 0.04 in1.0 mm
05:47 AM 33.3°F0.7°C 30.3°F-0.9°C 89% 9.8 mph NNE15.8 kmh NNE 16.2 mph26.1 kmh 29.91 in1012.9 mb 0.00 in0.0 mm 0.00 in0.0 mm 0.04 in1.0 mm
05:52 AM 33.2°F0.7°C 30.5°F-0.8°C 90% 5.1 mph NNE8.2 kmh NNE 16.2 mph26.1 kmh 29.94 in1013.9 mb 0.00 in0.0 mm 0.00 in0.0 mm 0.04 in1.0 mm
05:57 AM 33.2°F0.7°C 29.7°F-1.3°C 87% 7.8 mph N12.6 kmh N 17.0 mph27.4 kmh 29.94 in1013.9 mb 0.00 in0.0 mm 0.00 in0.0 mm 0.04 in1.0 mm
06:02 AM 33.0°F0.6°C 29.5°F-1.4°C 87% 6.8 mph 10.9 kmh 17.0 mph27.4 kmh 29.94 in1013.9 mb 0.00 in0.0 mm 0.00 in0.0 mm 0.04 in1.0 mm
06:08 AM 33.0°F0.6°C 29.2°F-1.6°C 86% 10.3 mph N16.6 kmh N 19.2 mph30.9 kmh 29.94 in1013.9 mb 0.00 in0.0 mm 0.00 in0.0 mm 0.04 in1.0 mm
06:13 AM 32.8°F0.4°C 29.0°F-1.7°C 86% 6.7 mph N10.8 kmh N 19.2 mph30.9 kmh 29.94 in1013.9 mb 0.00 in0.0 mm 0.00 in0.0 mm 0.04 in1.0 mm
06:19 AM 32.6°F0.3°C 28.8°F-1.8°C 86% 6.8 mph N10.9 kmh N 13.0 mph20.9 kmh 29.94 in1013.9 mb 0.00 in0.0 mm 0.00 in0.0 mm 0.04 in1.0 mm
06:24 AM 32.4°F0.2°C 28.6°F-1.9°C 86% 9.1 mph N14.6 kmh N 17.4 mph28.0 kmh 29.97 in1014.9 mb 0.00 in0.0 mm 0.00 in0.0 mm 0.04 in1.0 mm
06:29 AM 32.4°F0.2°C 28.6°F-1.9°C 86% 6.6 mph NNE10.6 kmh NNE 17.4 mph28.0 kmh 29.97 in1014.9 mb 0.00 in0.0 mm 0.00 in0.0 mm 0.04 in1.0 mm
06:34 AM 32.3°F0.2°C 28.8°F-1.8°C 87% 5.9 mph N9.5 kmh N 13.0 mph20.9 kmh 29.97 in1014.9 mb 0.00 in0.0 mm 0.00 in0.0 mm 0.04 in1.0 mm
06:41 AM 32.1°F0.1°C 28.6°F-1.9°C 87% 4.9 mph NNE7.9 kmh NNE 9.8 mph15.8 kmh 29.97 in1014.9 mb 0.00 in0.0 mm 0.00 in0.0 mm 0.04 in1.0 mm
06:46 AM 31.9°F-0.1°C 28.4°F-2.0°C 87% 3.1 mph N5.0 kmh N 9.0 mph14.5 kmh 29.97 in1014.9 mb 0.00 in0.0 mm 0.00 in0.0 mm 0.04 in1.0 mm
06:51 AM 31.7°F-0.2°C 28.2°F-2.1°C 87% 4.1 mph NNW6.6 kmh NNW 9.0 mph14.5 kmh 29.97 in1014.9 mb 0.00 in0.0 mm 0.00 in0.0 mm 0.04 in1.0 mm
06:56 AM 31.5°F-0.3°C 28.0°F-2.2°C 87% 4.6 mph N7.4 kmh N 9.4 mph15.1 kmh 29.97 in1014.9 mb 0.00 in0.0 mm 0.00 in0.0 mm 0.04 in1.0 mm
07:01 AM 31.5°F-0.3°C 28.3°F-2.1°C 88% 3.9 mph NNW6.3 kmh NNW 9.4 mph15.1 kmh 29.97 in1014.9 mb 0.00 in0.0 mm 0.00 in0.0 mm 0.04 in1.0 mm
07:06 AM 31.5°F-0.3°C 28.3°F-2.1°C 88% 3.6 mph N5.8 kmh N 7.6 mph12.2 kmh 29.97 in1014.9 mb 0.00 in0.0 mm 0.00 in0.0 mm 0.04 in1.0 mm
07:11 AM 31.4°F-0.3°C 28.2°F-2.1°C 88% 5.7 mph N9.2 kmh N 7.2 mph11.6 kmh 29.97 in1014.9 mb 0.00 in0.0 mm 0.00 in0.0 mm 0.04 in1.0 mm
07:16 AM 31.5°F-0.3°C 28.3°F-2.1°C 88% 5.9 mph NNE9.5 kmh NNE 10.8 mph17.4 kmh 29.97 in1014.9 mb 0.00 in0.0 mm 0.00 in0.0 mm 0.04 in1.0 mm
07:23 AM 31.5°F-0.3°C 28.5°F-1.9°C 89% 5.2 mph NNE8.4 kmh NNE 10.8 mph17.4 kmh 30.00 in1015.9 mb 0.00 in0.0 mm 0.00 in0.0 mm 0.04 in1.0 mm
07:28 AM 31.9°F-0.1°C 28.9°F-1.7°C 89% 5.9 mph N9.5 kmh N 9.0 mph14.5 kmh 30.00 in1015.9 mb 0.00 in0.0 mm 0.00 in0.0 mm 0.04 in1.0 mm
07:33 AM 32.1°F0.1°C 29.1°F-1.6°C 89% 4.4 mph NNE7.1 kmh NNE 8.0 mph12.9 kmh 30.00 in1015.9 mb 0.00 in0.0 mm 0.00 in0.0 mm 0.04 in1.0 mm
07:38 AM 32.3°F0.2°C 29.3°F-1.5°C 89% 4.1 mph 6.6 kmh 8.0 mph12.9 kmh 30.00 in1015.9 mb 0.00 in0.0 mm 0.00 in0.0 mm 0.04 in1.0 mm
07:43 AM 32.4°F0.2°C 28.9°F-1.7°C 87% 8.3 mph NNE13.4 kmh NNE 10.8 mph17.4 kmh 30.00 in1015.9 mb 0.00 in0.0 mm 0.00 in0.0 mm 0.04 in1.0 mm
07:48 AM 33.0°F0.6°C 28.6°F-1.9°C 84% 8.3 mph N13.4 kmh N 11.2 mph18.0 kmh 30.00 in1015.9 mb 0.00 in0.0 mm 0.00 in0.0 mm 0.04 in1.0 mm
07:53 AM 33.2°F0.7°C 29.1°F-1.6°C 85% 4.3 mph NNE6.9 kmh NNE 11.2 mph18.0 kmh 30.03 in1016.9 mb 0.00 in0.0 mm 0.00 in0.0 mm 0.04 in1.0 mm
07:58 AM 33.5°F0.8°C 28.8°F-1.8°C 83% 9.0 mph N14.5 kmh N 13.0 mph20.9 kmh 30.03 in1016.9 mb 0.00 in0.0 mm 0.00 in0.0 mm 0.04 in1.0 mm
08:03 AM 34.2°F1.2°C 28.6°F-1.9°C 80% 6.7 mph NNE10.8 kmh NNE 13.0 mph20.9 kmh 30.03 in1016.9 mb 0.00 in0.0 mm 0.00 in0.0 mm 0.04 in1.0 mm
08:08 AM 35.0°F1.7°C 28.5°F-1.9°C 77% 6.0 mph NNE9.7 kmh NNE 12.0 mph19.3 kmh 30.03 in1016.9 mb 0.00 in0.0 mm 0.00 in0.0 mm 0.04 in1.0 mm
08:13 AM 35.7°F2.1°C 28.6°F-1.9°C 75% 7.4 mph NNE11.9 kmh NNE 14.4 mph23.2 kmh 30.03 in1016.9 mb 0.00 in0.0 mm 0.00 in0.0 mm 0.04 in1.0 mm
08:18 AM 35.5°F1.9°C 27.4°F-2.6°C 72% 8.8 mph N14.2 kmh N 14.4 mph23.2 kmh 30.03 in1016.9 mb 0.00 in0.0 mm 0.00 in0.0 mm 0.04 in1.0 mm
08:23 AM 35.5°F1.9°C 27.4°F-2.6°C 72% 5.2 mph N8.4 kmh N 14.4 mph23.2 kmh 30.03 in1016.9 mb 0.00 in0.0 mm 0.00 in0.0 mm 0.04 in1.0 mm
08:28 AM 35.7°F2.1°C 27.9°F-2.3°C 73% 7.3 mph NE11.7 kmh NE 14.4 mph23.2 kmh 30.03 in1016.9 mb 0.00 in0.0 mm 0.00 in0.0 mm 0.04 in1.0 mm
08:34 AM 35.9°F2.2°C 27.1°F-2.7°C 70% 9.7 mph NE15.6 kmh NE 12.6 mph20.3 kmh 30.03 in1016.9 mb 0.00 in0.0 mm 0.00 in0.0 mm 0.04 in1.0 mm
08:39 AM 36.2°F2.3°C 28.1°F-2.2°C 72% 5.5 mph N8.9 kmh N 12.6 mph20.3 kmh 30.03 in1016.9 mb 0.00 in0.0 mm 0.00 in0.0 mm 0.04 in1.0 mm
08:44 AM 36.6°F2.6°C 26.3°F-3.2°C 66% 11.5 mph NNE18.5 kmh NNE 17.0 mph27.4 kmh 30.03 in1016.9 mb 0.00 in0.0 mm 0.00 in0.0 mm 0.04 in1.0 mm
08:50 AM 36.2°F2.3°C 25.2°F-3.8°C 64% 11.5 mph NNE18.5 kmh NNE 21.0 mph33.8 kmh 30.03 in1016.9 mb 0.00 in0.0 mm 0.00 in0.0 mm 0.04 in1.0 mm
08:57 AM 36.6°F2.6°C 26.0°F-3.3°C 65% 10.0 mph N16.1 kmh N 21.0 mph33.8 kmh 30.03 in1016.9 mb 0.00 in0.0 mm 0.00 in0.0 mm 0.04 in1.0 mm
09:02 AM 36.6°F2.6°C 24.8°F-4.0°C 62% 15.1 mph N24.3 kmh N 22.0 mph35.4 kmh 30.03 in1016.9 mb 0.00 in0.0 mm 0.00 in0.0 mm 0.04 in1.0 mm
09:07 AM 36.9°F2.7°C 25.1°F-3.8°C 62% 16.6 mph N26.7 kmh N 22.0 mph35.4 kmh 30.03 in1016.9 mb 0.00 in0.0 mm 0.00 in0.0 mm 0.04 in1.0 mm
09:12 AM 37.5°F3.1°C 24.5°F-4.2°C 59% 13.8 mph N22.2 kmh N 21.4 mph34.4 kmh 30.03 in1016.9 mb 0.00 in0.0 mm 0.00 in0.0 mm 0.04 in1.0 mm
09:17 AM 37.5°F3.1°C 24.0°F-4.4°C 58% 17.3 mph N27.8 kmh N 24.6 mph39.6 kmh 30.03 in1016.9 mb 0.00 in0.0 mm 0.00 in0.0 mm 0.04 in1.0 mm
09:22 AM 38.4°F3.6°C 24.9°F-3.9°C 58% 10.3 mph N16.6 kmh N 24.6 mph39.6 kmh 30.03 in1016.9 mb 0.00 in0.0 mm 0.00 in0.0 mm 0.04 in1.0 mm
09:28 AM 38.7°F3.7°C 23.9°F-4.5°C 55% 17.0 mph N27.4 kmh N 25.0 mph40.2 kmh 30.03 in1016.9 mb 0.00 in0.0 mm 0.00 in0.0 mm 0.04 in1.0 mm
09:33 AM 39.8°F4.3°C 24.4°F-4.2°C 54% 9.6 mph N15.4 kmh N 25.0 mph40.2 kmh 30.03 in1016.9 mb 0.00 in0.0 mm 0.00 in0.0 mm 0.04 in1.0 mm
09:38 AM 40.9°F4.9°C 25.5°F-3.6°C 54% 9.4 mph NNE15.1 kmh NNE 20.6 mph33.2 kmh 30.03 in1016.9 mb 0.00 in0.0 mm 0.00 in0.0 mm 0.04 in1.0 mm
09:43 AM 41.8°F5.4°C 25.8°F-3.4°C 53% 13.6 mph NE21.9 kmh NE 21.0 mph33.8 kmh 30.03 in1016.9 mb 0.00 in0.0 mm 0.00 in0.0 mm 0.04 in1.0 mm
09:48 AM 41.3°F5.2°C 24.4°F-4.2°C 51% 18.8 mph NNE30.3 kmh NNE 24.2 mph38.9 kmh 30.03 in1016.9 mb 0.00 in0.0 mm 0.00 in0.0 mm 0.04 in1.0 mm
09:53 AM 42.3°F5.7°C 25.8°F-3.4°C 52% 11.6 mph NE18.7 kmh NE 24.2 mph38.9 kmh 30.03 in1016.9 mb 0.00 in0.0 mm 0.00 in0.0 mm 0.04 in1.0 mm
09:59 AM 42.7°F5.9°C 25.2°F-3.8°C 50% 15.2 mph NNE24.5 kmh NNE 22.4 mph36.0 kmh 30.03 in1016.9 mb 0.00 in0.0 mm 0.00 in0.0 mm 0.04 in1.0 mm
10:04 AM 42.3°F5.7°C 24.4°F-4.2°C 49% 15.6 mph NE25.1 kmh NE 25.0 mph40.2 kmh 30.03 in1016.9 mb 0.00 in0.0 mm 0.00 in0.0 mm 0.04 in1.0 mm
10:09 AM 43.1°F6.2°C 25.1°F-3.8°C 49% 13.2 mph NE21.2 kmh NE 25.0 mph40.2 kmh 30.03 in1016.9 mb 0.00 in0.0 mm 0.00 in0.0 mm 0.04 in1.0 mm
10:14 AM 42.9°F6.1°C 24.9°F-3.9°C 49% 16.8 mph NNE27.0 kmh NNE 24.2 mph38.9 kmh 30.03 in1016.9 mb 0.00 in0.0 mm 0.00 in0.0 mm 0.04 in1.0 mm
10:19 AM 44.5°F6.9°C 25.9°F-3.4°C 48% 9.6 mph NE15.4 kmh NE 24.2 mph38.9 kmh 30.03 in1016.9 mb 0.00 in0.0 mm 0.00 in0.0 mm 0.04 in1.0 mm
10:24 AM 45.0°F7.2°C 26.3°F-3.2°C 48% 9.2 mph NE14.8 kmh NE 19.6 mph31.5 kmh 30.03 in1016.9 mb 0.00 in0.0 mm 0.00 in0.0 mm 0.04 in1.0 mm
10:29 AM 46.1°F7.8°C 27.3°F-2.6°C 48% 8.7 mph ENE14.0 kmh ENE 19.6 mph31.5 kmh 30.03 in1016.9 mb 0.00 in0.0 mm 0.00 in0.0 mm 0.04 in1.0 mm
10:34 AM 45.4°F7.4°C 26.7°F-2.9°C 48% 11.4 mph N18.3 kmh N 20.6 mph33.2 kmh 30.03 in1016.9 mb 0.00 in0.0 mm 0.00 in0.0 mm 0.04 in1.0 mm
10:39 AM 46.1°F7.8°C 26.8°F-2.9°C 47% 9.9 mph NNE15.9 kmh NNE 20.6 mph33.2 kmh 30.03 in1016.9 mb 0.00 in0.0 mm 0.00 in0.0 mm 0.04 in1.0 mm
10:44 AM 44.7°F7.1°C 25.0°F-3.9°C 46% 17.0 mph NNE27.4 kmh NNE 22.0 mph35.4 kmh 30.03 in1016.9 mb 0.00 in0.0 mm 0.00 in0.0 mm 0.04 in1.0 mm
10:50 AM 45.9°F7.7°C 25.6°F-3.6°C 45% 14.1 mph ENE22.7 kmh ENE 22.0 mph35.4 kmh 30.03 in1016.9 mb 0.00 in0.0 mm 0.00 in0.0 mm 0.04 in1.0 mm
10:55 AM 45.9°F7.7°C 26.1°F-3.3°C 46% 12.8 mph NE20.6 kmh NE 22.0 mph35.4 kmh 30.00 in1015.9 mb 0.00 in0.0 mm 0.00 in0.0 mm 0.04 in1.0 mm
11:00 AM 46.1°F7.8°C 26.8°F-2.9°C 47% 12.6 mph NE20.3 kmh NE 19.6 mph31.5 kmh 30.00 in1015.9 mb 0.00 in0.0 mm 0.00 in0.0 mm 0.04 in1.0 mm
11:05 AM 47.0°F8.3°C 27.6°F-2.4°C 47% 8.6 mph N13.8 kmh N 17.4 mph28.0 kmh 30.00 in1015.9 mb 0.00 in0.0 mm 0.00 in0.0 mm 0.04 in1.0 mm
11:11 AM 47.7°F8.7°C 27.7°F-2.4°C 46% 9.2 mph NE14.8 kmh NE 26.0 mph41.8 kmh 30.03 in1016.9 mb 0.00 in0.0 mm 0.00 in0.0 mm 0.04 in1.0 mm
11:16 AM 48.6°F9.2°C 28.6°F-1.9°C 46% 3.8 mph SE6.1 kmh SE 20.6 mph33.2 kmh 30.03 in1016.9 mb 0.00 in0.0 mm 0.00 in0.0 mm 0.04 in1.0 mm
11:22 AM 49.0°F9.4°C 27.8°F-2.3°C 44% 15.5 mph NE24.9 kmh NE 19.2 mph30.9 kmh 30.03 in1016.9 mb 0.00 in0.0 mm 0.00 in0.0 mm 0.04 in1.0 mm
11:27 AM 48.1°F8.9°C 27.0°F-2.8°C 44% 7.6 mph N12.2 kmh N 19.2 mph30.9 kmh 30.03 in1016.9 mb 0.00 in0.0 mm 0.00 in0.0 mm 0.04 in1.0 mm
11:33 AM 49.2°F9.6°C 28.6°F-1.9°C 45% 5.9 mph NE9.5 kmh NE 13.0 mph20.9 kmh 30.03 in1016.9 mb 0.00 in0.0 mm 0.00 in0.0 mm 0.04 in1.0 mm
11:38 AM 49.9°F9.9°C 28.6°F-1.9°C 44% 11.8 mph NNE19.0 kmh NNE 17.4 mph28.0 kmh 30.03 in1016.9 mb 0.00 in0.0 mm 0.00 in0.0 mm 0.04 in1.0 mm
11:43 AM 48.8°F9.3°C 27.1°F-2.7°C 43% 7.7 mph N12.4 kmh N 17.4 mph28.0 kmh 30.03 in1016.9 mb 0.00 in0.0 mm 0.00 in0.0 mm 0.04 in1.0 mm
11:48 AM 51.5°F10.8°C 30.7°F-0.7°C 45% 5.0 mph NE8.0 kmh NE 15.2 mph24.5 kmh 30.03 in1016.9 mb 0.00 in0.0 mm 0.00 in0.0 mm 0.04 in1.0 mm
11:53 AM 50.4°F10.2°C 29.1°F-1.6°C 44% 11.5 mph NE18.5 kmh NE 17.0 mph27.4 kmh 30.03 in1016.9 mb 0.00 in0.0 mm 0.00 in0.0 mm 0.04 in1.0 mm
11:58 AM 50.4°F10.2°C 27.9°F-2.3°C 42% 8.1 mph NE13.0 kmh NE 17.0 mph27.4 kmh 30.03 in1016.9 mb 0.00 in0.0 mm 0.00 in0.0 mm 0.04 in1.0 mm
12:03 PM 49.9°F9.9°C 26.9°F-2.8°C 41% 9.9 mph NNE15.9 kmh NNE 17.0 mph27.4 kmh 30.03 in1016.9 mb 0.00 in0.0 mm 0.00 in0.0 mm 0.04 in1.0 mm
12:08 PM 51.2°F10.7°C 29.2°F-1.6°C 43% 7.5 mph NNE12.1 kmh NNE 15.6 mph25.1 kmh 30.00 in1015.9 mb 0.00 in0.0 mm 0.00 in0.0 mm 0.04 in1.0 mm
12:13 PM 50.1°F10.1°C 27.0°F-2.8°C 41% 15.0 mph NE24.1 kmh NE 17.0 mph27.4 kmh 30.00 in1015.9 mb 0.00 in0.0 mm 0.00 in0.0 mm 0.04 in1.0 mm
12:18 PM 51.0°F10.6°C 27.9°F-2.3°C 41% 4.8 mph SW7.7 kmh SW 17.0 mph27.4 kmh 30.00 in1015.9 mb 0.00 in0.0 mm 0.00 in0.0 mm 0.04 in1.0 mm
12:23 PM 52.2°F11.2°C 29.5°F-1.4°C 42% 6.3 mph ENE10.1 kmh ENE 13.0 mph20.9 kmh 30.03 in1016.9 mb 0.00 in0.0 mm 0.00 in0.0 mm 0.04 in1.0 mm
12:28 PM 51.5°F10.8°C 28.9°F-1.7°C 42% 6.8 mph NNW10.9 kmh NNW 14.8 mph23.8 kmh 30.03 in1016.9 mb 0.00 in0.0 mm 0.00 in0.0 mm 0.04 in1.0 mm
12:33 PM 51.2°F10.7°C 28.0°F-2.2°C 41% 5.2 mph W8.4 kmh W 14.8 mph23.8 kmh 30.03 in1016.9 mb 0.00 in0.0 mm 0.00 in0.0 mm 0.04 in1.0 mm
12:38 PM 52.1°F11.2°C 28.9°F-1.7°C 41% 7.0 mph E11.3 kmh E 12.6 mph20.3 kmh 30.03 in1016.9 mb 0.00 in0.0 mm 0.00 in0.0 mm 0.04 in1.0 mm
12:43 PM 52.4°F11.3°C 29.1°F-1.6°C 41% 10.7 mph NE17.2 kmh NE 15.6 mph25.1 kmh 30.03 in1016.9 mb 0.00 in0.0 mm 0.00 in0.0 mm 0.04 in1.0 mm
12:48 PM 52.8°F11.6°C 29.5°F-1.4°C 41% 14.5 mph NE23.3 kmh NE 17.4 mph28.0 kmh 30.03 in1016.9 mb 0.00 in0.0 mm 0.00 in0.0 mm 0.04 in1.0 mm
12:54 PM 52.2°F11.2°C 28.3°F-2.1°C 40% 11.6 mph NE18.7 kmh NE 17.4 mph28.0 kmh 30.00 in1015.9 mb 0.00 in0.0 mm 0.00 in0.0 mm 0.04 in1.0 mm
12:59 PM 53.7°F12.1°C 29.7°F-1.3°C 40% 8.8 mph NE14.2 kmh NE 16.2 mph26.1 kmh 30.00 in1015.9 mb 0.00 in0.0 mm 0.00 in0.0 mm 0.04 in1.0 mm
01:05 PM 54.9°F12.7°C 30.8°F-0.7°C 40% 4.9 mph SE7.9 kmh SE 13.0 mph20.9 kmh 30.00 in1015.9 mb 0.00 in0.0 mm 0.00 in0.0 mm 0.04 in1.0 mm
01:10 PM 54.2°F12.3°C 30.1°F-1.1°C 40% 9.7 mph NNW15.6 kmh NNW 20.2 mph32.5 kmh 30.00 in1015.9 mb 0.00 in0.0 mm 0.00 in0.0 mm 0.04 in1.0 mm
01:15 PM 52.4°F11.3°C 27.9°F-2.3°C 39% 12.1 mph N19.5 kmh N 20.2 mph32.5 kmh 30.00 in1015.9 mb 0.00 in0.0 mm 0.00 in0.0 mm 0.04 in1.0 mm
01:20 PM 53.5°F11.9°C 28.9°F-1.7°C 39% 8.6 mph NE13.8 kmh NE 17.4 mph28.0 kmh 30.00 in1015.9 mb 0.00 in0.0 mm 0.00 in0.0 mm 0.04 in1.0 mm
01:26 PM 55.5°F13.1°C 30.7°F-0.7°C 39% 6.4 mph NNE10.3 kmh NNE 17.0 mph27.4 kmh 30.00 in1015.9 mb 0.00 in0.0 mm 0.00 in0.0 mm 0.04 in1.0 mm
01:31 PM 56.0°F13.3°C 31.1°F-0.5°C 39% 5.7 mph SE9.2 kmh SE 13.0 mph20.9 kmh 30.00 in1015.9 mb 0.00 in0.0 mm 0.00 in0.0 mm 0.04 in1.0 mm
01:36 PM 55.7°F13.2°C 30.8°F-0.7°C 39% 7.0 mph N11.3 kmh N 13.0 mph20.9 kmh 30.00 in1015.9 mb 0.00 in0.0 mm 0.00 in0.0 mm 0.04 in1.0 mm
01:41 PM 54.2°F12.3°C 28.8°F-1.8°C 38% 7.4 mph NW11.9 kmh NW 9.4 mph15.1 kmh 30.00 in1015.9 mb 0.00 in0.0 mm 0.00 in0.0 mm 0.04 in1.0 mm
01:46 PM 54.0°F12.2°C 28.7°F-1.8°C 38% 6.6 mph WNW10.6 kmh WNW 8.6 mph13.8 kmh 30.00 in1015.9 mb 0.00 in0.0 mm 0.00 in0.0 mm 0.04 in1.0 mm
01:51 PM 54.6°F12.6°C 29.8°F-1.2°C 39% 5.9 mph NW9.5 kmh NW 8.6 mph13.8 kmh 30.00 in1015.9 mb 0.00 in0.0 mm 0.00 in0.0 mm 0.04 in1.0 mm
01:56 PM 54.8°F12.7°C 29.4°F-1.4°C 38% 10.6 mph N17.1 kmh N 14.4 mph23.2 kmh 30.00 in1015.9 mb 0.00 in0.0 mm 0.00 in0.0 mm 0.04 in1.0 mm
02:01 PM 55.8°F13.2°C 30.3°F-0.9°C 38% 4.9 mph NNW7.9 kmh NNW 14.4 mph23.2 kmh 30.00 in1015.9 mb 0.00 in0.0 mm 0.00 in0.0 mm 0.04 in1.0 mm
02:06 PM 56.2°F13.4°C 30.0°F-1.1°C 37% 8.2 mph N13.2 kmh N 14.4 mph23.2 kmh 30.00 in1015.9 mb 0.00 in0.0 mm 0.00 in0.0 mm 0.04 in1.0 mm
02:11 PM 55.3°F12.9°C 29.2°F-1.6°C 37% 7.0 mph N11.3 kmh N 16.2 mph26.1 kmh 30.00 in1015.9 mb 0.00 in0.0 mm 0.00 in0.0 mm 0.04 in1.0 mm
02:17 PM 54.2°F12.3°C 27.5°F-2.5°C 36% 10.0 mph N16.1 kmh N 16.2 mph26.1 kmh 30.00 in1015.9 mb 0.00 in0.0 mm 0.00 in0.0 mm 0.04 in1.0 mm
02:22 PM 55.3°F12.9°C 29.2°F-1.6°C 37% 4.8 mph N7.7 kmh N 14.8 mph23.8 kmh 30.00 in1015.9 mb 0.00 in0.0 mm 0.00 in0.0 mm 0.04 in1.0 mm
02:27 PM 54.6°F12.6°C 29.2°F-1.6°C 38% 5.5 mph NW8.9 kmh NW 14.8 mph23.8 kmh 30.00 in1015.9 mb 0.00 in0.0 mm 0.00 in0.0 mm 0.04 in1.0 mm
02:32 PM 53.7°F12.1°C 27.7°F-2.4°C 37% 5.8 mph NW9.3 kmh NW 11.6 mph18.7 kmh 30.00 in1015.9 mb 0.00 in0.0 mm 0.00 in0.0 mm 0.04 in1.0 mm
02:37 PM 53.5°F11.9°C 27.6°F-2.4°C 37% 6.6 mph WNW10.6 kmh WNW 11.6 mph18.7 kmh 30.00 in1015.9 mb 0.00 in0.0 mm 0.00 in0.0 mm 0.04 in1.0 mm
02:42 PM 54.2°F12.3°C 28.2°F-2.1°C 37% 5.2 mph NNE8.4 kmh NNE 10.8 mph17.4 kmh 30.00 in1015.9 mb 0.00 in0.0 mm 0.00 in0.0 mm 0.04 in1.0 mm
02:47 PM 54.9°F12.7°C 28.8°F-1.8°C 37% 4.6 mph NW7.4 kmh NW 10.8 mph17.4 kmh 30.00 in1015.9 mb 0.00 in0.0 mm 0.00 in0.0 mm 0.04 in1.0 mm
02:52 PM 56.7°F13.7°C 29.7°F-1.3°C 36% 3.3 mph NE5.3 kmh NE 9.4 mph15.1 kmh 30.00 in1015.9 mb 0.00 in0.0 mm 0.00 in0.0 mm 0.04 in1.0 mm
02:57 PM 57.8°F14.3°C 30.7°F-0.7°C 36% 5.2 mph ENE8.4 kmh ENE 7.2 mph11.6 kmh 30.00 in1015.9 mb 0.00 in0.0 mm 0.00 in0.0 mm 0.04 in1.0 mm
03:02 PM 57.6°F14.2°C 30.5°F-0.8°C 36% 5.7 mph ENE9.2 kmh ENE 13.8 mph22.2 kmh 30.00 in1015.9 mb 0.00 in0.0 mm 0.00 in0.0 mm 0.04 in1.0 mm
03:07 PM 56.2°F13.4°C 29.3°F-1.5°C 36% 11.5 mph NNE18.5 kmh NNE 14.8 mph23.8 kmh 29.97 in1014.9 mb 0.00 in0.0 mm 0.00 in0.0 mm 0.04 in1.0 mm
03:12 PM 57.3°F14.1°C 30.3°F-0.9°C 36% 5.1 mph E8.2 kmh E 14.8 mph23.8 kmh 29.97 in1014.9 mb 0.00 in0.0 mm 0.00 in0.0 mm 0.04 in1.0 mm
03:17 PM 58.4°F14.7°C 31.2°F-0.4°C 36% 5.8 mph E9.3 kmh E 12.0 mph19.3 kmh 29.97 in1014.9 mb 0.00 in0.0 mm 0.00 in0.0 mm 0.04 in1.0 mm
03:22 PM 57.8°F14.3°C 30.7°F-0.7°C 36% 5.6 mph E9.0 kmh E 11.2 mph18.0 kmh 29.97 in1014.9 mb 0.00 in0.0 mm 0.00 in0.0 mm 0.04 in1.0 mm
03:27 PM 58.2°F14.6°C 31.1°F-0.5°C 36% 2.3 mph S3.7 kmh S 11.2 mph18.0 kmh 29.97 in1014.9 mb 0.00 in0.0 mm 0.00 in0.0 mm 0.04 in1.0 mm
03:32 PM 57.5°F14.2°C 30.4°F-0.9°C 36% 4.5 mph N7.2 kmh N 9.4 mph15.1 kmh 29.97 in1014.9 mb 0.00 in0.0 mm 0.00 in0.0 mm 0.04 in1.0 mm
03:38 PM 57.8°F14.3°C 30.7°F-0.7°C 36% 3.7 mph S6.0 kmh S 7.6 mph12.2 kmh 29.97 in1014.9 mb 0.00 in0.0 mm 0.00 in0.0 mm 0.04 in1.0 mm
03:43 PM 56.9°F13.8°C 29.9°F-1.2°C 36% 4.3 mph NW6.9 kmh NW 8.6 mph13.8 kmh 29.97 in1014.9 mb 0.00 in0.0 mm 0.00 in0.0 mm 0.04 in1.0 mm
03:48 PM 56.7°F13.7°C 29.7°F-1.3°C 36% 5.2 mph S8.4 kmh S 8.6 mph13.8 kmh 29.97 in1014.9 mb 0.00 in0.0 mm 0.00 in0.0 mm 0.04 in1.0 mm
03:53 PM 56.7°F13.7°C 29.7°F-1.3°C 36% 3.9 mph S6.3 kmh S 6.8 mph10.9 kmh 29.97 in1014.9 mb 0.00 in0.0 mm 0.00 in0.0 mm 0.04 in1.0 mm
03:58 PM 55.5°F13.1°C 28.7°F-1.8°C 36% 5.8 mph WNW9.3 kmh WNW 7.2 mph11.6 kmh 29.97 in1014.9 mb 0.00 in0.0 mm 0.00 in0.0 mm 0.04 in1.0 mm
04:03 PM 54.9°F12.7°C 28.1°F-2.2°C 36% 5.8 mph SW9.3 kmh SW 9.8 mph15.8 kmh 29.97 in1014.9 mb 0.00 in0.0 mm 0.00 in0.0 mm 0.04 in1.0 mm
04:08 PM 54.9°F12.7°C 28.1°F-2.2°C 36% 4.1 mph WSW6.6 kmh WSW 9.8 mph15.8 kmh 29.94 in1013.9 mb 0.00 in0.0 mm 0.00 in0.0 mm 0.04 in1.0 mm
04:13 PM 54.4°F12.4°C 27.7°F-2.4°C 36% 3.0 mph NNW4.8 kmh NNW 7.2 mph11.6 kmh 29.94 in1013.9 mb 0.00 in0.0 mm 0.00 in0.0 mm 0.04 in1.0 mm
04:18 PM 54.9°F12.7°C 28.1°F-2.2°C 36% 3.4 mph ESE5.5 kmh ESE 7.2 mph11.6 kmh 29.94 in1013.9 mb 0.00 in0.0 mm 0.00 in0.0 mm 0.04 in1.0 mm
04:23 PM 54.6°F12.6°C 28.5°F-1.9°C 37% 5.2 mph W8.4 kmh W 7.2 mph11.6 kmh 29.97 in1014.9 mb 0.00 in0.0 mm 0.00 in0.0 mm 0.04 in1.0 mm
04:30 PM 53.7°F12.1°C 27.7°F-2.4°C 37% 4.2 mph N6.8 kmh N 8.6 mph13.8 kmh 29.97 in1014.9 mb 0.00 in0.0 mm 0.00 in0.0 mm 0.04 in1.0 mm
04:35 PM 53.7°F12.1°C 27.1°F-2.7°C 36% 4.1 mph WNW6.6 kmh WNW 8.6 mph13.8 kmh 29.97 in1014.9 mb 0.00 in0.0 mm 0.00 in0.0 mm 0.04 in1.0 mm
04:40 PM 53.7°F12.1°C 27.7°F-2.4°C 37% 3.3 mph NW5.3 kmh NW 8.6 mph13.8 kmh 29.97 in1014.9 mb 0.00 in0.0 mm 0.00 in0.0 mm 0.04 in1.0 mm
04:45 PM 54.4°F12.4°C 28.4°F-2.0°C 37% 3.3 mph NE5.3 kmh NE 5.8 mph9.3 kmh 29.97 in1014.9 mb 0.00 in0.0 mm 0.00 in0.0 mm 0.04 in1.0 mm
04:50 PM 53.3°F11.8°C 27.4°F-2.6°C 37% 5.8 mph W9.3 kmh W 7.6 mph12.2 kmh 29.97 in1014.9 mb 0.00 in0.0 mm 0.00 in0.0 mm 0.04 in1.0 mm
04:55 PM 54.2°F12.3°C 28.2°F-2.1°C 37% 4.3 mph NE6.9 kmh NE 7.6 mph12.2 kmh 29.97 in1014.9 mb 0.00 in0.0 mm 0.00 in0.0 mm 0.04 in1.0 mm
05:01 PM 53.9°F12.2°C 27.2°F-2.7°C 36% 5.4 mph NNW8.7 kmh NNW 9.0 mph14.5 kmh 29.97 in1014.9 mb 0.00 in0.0 mm 0.00 in0.0 mm 0.04 in1.0 mm
05:06 PM 54.8°F12.7°C 28.7°F-1.8°C 37% 5.6 mph ENE9.0 kmh ENE 9.4 mph15.1 kmh 29.97 in1014.9 mb 0.00 in0.0 mm 0.00 in0.0 mm 0.04 in1.0 mm
05:12 PM 54.2°F12.3°C 28.2°F-2.1°C 37% 6.3 mph N10.1 kmh N 12.6 mph20.3 kmh 29.97 in1014.9 mb 0.00 in0.0 mm 0.00 in0.0 mm 0.04 in1.0 mm
05:17 PM 55.3°F12.9°C 28.5°F-1.9°C 36% 4.1 mph SE6.6 kmh SE 8.6 mph13.8 kmh 29.97 in1014.9 mb 0.00 in0.0 mm 0.00 in0.0 mm 0.04 in1.0 mm
05:24 PM 55.1°F12.8°C 29.0°F-1.7°C 37% 5.4 mph ESE8.7 kmh ESE 8.0 mph12.9 kmh 29.97 in1014.9 mb 0.00 in0.0 mm 0.00 in0.0 mm 0.04 in1.0 mm
05:29 PM 54.6°F12.6°C 28.5°F-1.9°C 37% 2.6 mph E4.2 kmh E 8.0 mph12.9 kmh 29.97 in1014.9 mb 0.00 in0.0 mm 0.00 in0.0 mm 0.04 in1.0 mm
05:34 PM 54.2°F12.3°C 28.2°F-2.1°C 37% 2.7 mph 4.3 kmh 6.8 mph10.9 kmh 29.97 in1014.9 mb 0.00 in0.0 mm 0.00 in0.0 mm 0.04 in1.0 mm
05:39 PM 53.1°F11.7°C 27.2°F-2.7°C 37% 3.4 mph NW5.5 kmh NW 4.0 mph6.4 kmh 29.97 in1014.9 mb 0.00 in0.0 mm 0.00 in0.0 mm 0.04 in1.0 mm
05:45 PM 53.0°F11.7°C 27.1°F-2.7°C 37% 2.9 mph SSW4.7 kmh SSW 5.0 mph8.0 kmh 29.97 in1014.9 mb 0.00 in0.0 mm 0.00 in0.0 mm 0.04 in1.0 mm
05:50 PM 53.0°F11.7°C 27.8°F-2.3°C 38% 2.8 mph SSW4.5 kmh SSW 5.4 mph8.7 kmh 29.97 in1014.9 mb 0.00 in0.0 mm 0.00 in0.0 mm 0.04 in1.0 mm
05:55 PM 53.0°F11.7°C 27.1°F-2.7°C 37% 2.3 mph SW3.7 kmh SW 7.6 mph12.2 kmh 29.97 in1014.9 mb 0.00 in0.0 mm 0.00 in0.0 mm 0.04 in1.0 mm
06:00 PM 53.0°F11.7°C 27.8°F-2.3°C 38% 3.3 mph NE5.3 kmh NE 7.6 mph12.2 kmh 29.97 in1014.9 mb 0.00 in0.0 mm 0.00 in0.0 mm 0.04 in1.0 mm
06:06 PM 52.4°F11.3°C 27.2°F-2.7°C 38% 3.8 mph W6.1 kmh W 5.4 mph8.7 kmh 29.97 in1014.9 mb 0.00 in0.0 mm 0.00 in0.0 mm 0.04 in1.0 mm
06:11 PM 52.1°F11.2°C 26.3°F-3.2°C 37% 5.7 mph NNE9.2 kmh NNE 6.8 mph10.9 kmh 29.94 in1013.9 mb 0.00 in0.0 mm 0.00 in0.0 mm 0.04 in1.0 mm
06:16 PM 52.1°F11.2°C 26.3°F-3.2°C 37% 2.8 mph ENE4.5 kmh ENE 6.8 mph10.9 kmh 29.94 in1013.9 mb 0.00 in0.0 mm 0.00 in0.0 mm 0.04 in1.0 mm
06:21 PM 52.1°F11.2°C 27.0°F-2.8°C 38% 3.1 mph NE5.0 kmh NE 5.0 mph8.0 kmh 29.94 in1013.9 mb 0.00 in0.0 mm 0.00 in0.0 mm 0.04 in1.0 mm
06:26 PM 51.9°F11.1°C 26.8°F-2.9°C 38% Calm Calm 5.0 mph8.0 kmh 29.97 in1014.9 mb 0.00 in0.0 mm 0.00 in0.0 mm 0.04 in1.0 mm
06:31 PM 51.7°F10.9°C 26.6°F-3.0°C 38% 2.2 mph ESE3.5 kmh ESE 3.2 mph5.1 kmh 29.97 in1014.9 mb 0.00 in0.0 mm 0.00 in0.0 mm 0.04 in1.0 mm
06:36 PM 51.2°F10.7°C 26.8°F-2.9°C 39% Calm Calm 2.2 mph3.5 kmh 29.97 in1014.9 mb 0.00 in0.0 mm 0.00 in0.0 mm 0.04 in1.0 mm
06:41 PM 50.8°F10.4°C 26.4°F-3.1°C 39% Calm Calm -- 29.97 in1014.9 mb 0.00 in0.0 mm 0.00 in0.0 mm 0.04 in1.0 mm
06:47 PM 50.8°F10.4°C 27.7°F-2.4°C 41% Calm Calm -- 29.97 in1014.9 mb 0.00 in0.0 mm 0.00 in0.0 mm 0.04 in1.0 mm
06:52 PM 50.3°F10.2°C 26.6°F-3.0°C 40% Calm Calm -- 29.97 in1014.9 mb 0.00 in0.0 mm 0.00 in0.0 mm 0.04 in1.0 mm
06:58 PM 50.1°F10.1°C 26.4°F-3.1°C 40% Calm Calm -- 29.97 in1014.9 mb 0.00 in0.0 mm 0.00 in0.0 mm 0.04 in1.0 mm
07:03 PM 50.1°F10.1°C 26.4°F-3.1°C 40% Calm Calm -- 29.97 in1014.9 mb 0.00 in0.0 mm 0.00 in0.0 mm 0.04 in1.0 mm
07:08 PM 49.9°F9.9°C 26.9°F-2.8°C 41% Calm Calm -- 29.97 in1014.9 mb 0.00 in0.0 mm 0.00 in0.0 mm 0.04 in1.0 mm
07:13 PM 49.7°F9.8°C 27.9°F-2.3°C 43% Calm Calm -- 29.97 in1014.9 mb 0.00 in0.0 mm 0.00 in0.0 mm 0.04 in1.0 mm
07:19 PM 49.4°F9.7°C 28.2°F-2.1°C 44% Calm Calm -- 29.97 in1014.9 mb 0.00 in0.0 mm 0.00 in0.0 mm 0.04 in1.0 mm
07:24 PM 49.2°F9.6°C 28.0°F-2.2°C 44% Calm Calm -- 29.97 in1014.9 mb 0.00 in0.0 mm 0.00 in0.0 mm 0.04 in1.0 mm
07:29 PM 48.8°F9.3°C 28.7°F-1.8°C 46% Calm Calm -- 29.97 in1014.9 mb 0.00 in0.0 mm 0.00 in0.0 mm 0.04 in1.0 mm
07:34 PM 48.5°F9.2°C 28.5°F-1.9°C 46% 2.0 mph ESE3.2 kmh ESE 4.0 mph6.4 kmh 29.97 in1014.9 mb 0.00 in0.0 mm 0.00 in0.0 mm 0.04 in1.0 mm
07:39 PM 48.3°F9.1°C 28.3°F-2.1°C 46% Calm Calm 4.0 mph6.4 kmh 30.00 in1015.9 mb 0.00 in0.0 mm 0.00 in0.0 mm 0.04 in1.0 mm
07:44 PM 48.1°F8.9°C 28.1°F-2.2°C 46% Calm Calm -- 30.00 in1015.9 mb 0.00 in0.0 mm 0.00 in0.0 mm 0.04 in1.0 mm
07:49 PM 47.7°F8.7°C 27.7°F-2.4°C 46% Calm Calm -- 30.00 in1015.9 mb 0.00 in0.0 mm 0.00 in0.0 mm 0.04 in1.0 mm
07:54 PM 47.6°F8.7°C 28.2°F-2.1°C 47% Calm Calm -- 30.00 in1015.9 mb 0.00 in0.0 mm 0.00 in0.0 mm 0.04 in1.0 mm
07:59 PM 47.2°F8.4°C 28.4°F-2.0°C 48% Calm Calm -- 30.00 in1015.9 mb 0.00 in0.0 mm 0.00 in0.0 mm 0.04 in1.0 mm
08:04 PM 47.0°F8.3°C 28.2°F-2.1°C 48% Calm Calm -- 30.00 in1015.9 mb 0.00 in0.0 mm 0.00 in0.0 mm 0.04 in1.0 mm
08:10 PM 46.7°F8.2°C 28.9°F-1.7°C 50% 2.2 mph ESE3.5 kmh ESE 2.2 mph3.5 kmh 30.00 in1015.9 mb 0.00 in0.0 mm 0.00 in0.0 mm 0.04 in1.0 mm
08:15 PM 46.3°F7.9°C 28.6°F-1.9°C 50% 2.3 mph ESE3.7 kmh ESE 2.6 mph4.2 kmh 30.00 in1015.9 mb 0.00 in0.0 mm 0.00 in0.0 mm 0.04 in1.0 mm
08:21 PM 46.1°F7.8°C 28.4°F-2.0°C 50% Calm Calm 2.6 mph4.2 kmh 30.00 in1015.9 mb 0.00 in0.0 mm 0.00 in0.0 mm 0.04 in1.0 mm
08:26 PM 46.3°F7.9°C 28.6°F-1.9°C 50% Calm Calm -- 29.97 in1014.9 mb 0.00 in0.0 mm 0.00 in0.0 mm 0.04 in1.0 mm
08:31 PM 45.9°F7.7°C 30.1°F-1.1°C 54% Calm Calm -- 29.97 in1014.9 mb 0.00 in0.0 mm 0.00 in0.0 mm 0.04 in1.0 mm
08:36 PM 45.8°F7.7°C 31.4°F-0.3°C 57% Calm Calm -- 29.97 in1014.9 mb 0.00 in0.0 mm 0.00 in0.0 mm 0.04 in1.0 mm
08:41 PM 45.4°F7.4°C 32.3°F0.2°C 60% Calm Calm -- 29.97 in1014.9 mb 0.00 in0.0 mm 0.00 in0.0 mm 0.04 in1.0 mm
08:46 PM 45.2°F7.3°C 31.3°F-0.4°C 58% 3.2 mph ESE5.1 kmh ESE 3.2 mph5.1 kmh 29.97 in1014.9 mb 0.00 in0.0 mm 0.00 in0.0 mm 0.04 in1.0 mm
08:52 PM 45.0°F7.2°C 30.7°F-0.7°C 57% Calm Calm 4.0 mph6.4 kmh 30.00 in1015.9 mb 0.00 in0.0 mm 0.00 in0.0 mm 0.04 in1.0 mm
08:57 PM 44.9°F7.2°C 30.6°F-0.8°C 57% Calm Calm 2.6 mph4.2 kmh 30.00 in1015.9 mb 0.00 in0.0 mm 0.00 in0.0 mm 0.04 in1.0 mm
09:02 PM 44.7°F7.1°C 29.9°F-1.2°C 56% 3.1 mph ESE5.0 kmh ESE 4.0 mph6.4 kmh 30.00 in1015.9 mb 0.00 in0.0 mm 0.00 in0.0 mm 0.04 in1.0 mm
09:07 PM 44.5°F6.9°C 29.7°F-1.3°C 56% Calm Calm 4.0 mph6.4 kmh 30.00 in1015.9 mb 0.00 in0.0 mm 0.00 in0.0 mm 0.04 in1.0 mm
09:12 PM 44.5°F6.9°C 30.6°F-0.8°C 58% 2.3 mph ESE3.7 kmh ESE 2.6 mph4.2 kmh 30.00 in1015.9 mb 0.00 in0.0 mm 0.00 in0.0 mm 0.04 in1.0 mm
09:17 PM 44.3°F6.8°C 30.4°F-0.9°C 58% Calm Calm 2.6 mph4.2 kmh 30.00 in1015.9 mb 0.00 in0.0 mm 0.00 in0.0 mm 0.04 in1.0 mm
09:22 PM 44.3°F6.8°C 32.1°F0.1°C 62% 2.2 mph ESE3.5 kmh ESE 2.6 mph4.2 kmh 30.00 in1015.9 mb 0.00 in0.0 mm 0.00 in0.0 mm 0.04 in1.0 mm
09:27 PM 44.1°F6.7°C 32.7°F0.4°C 64% 2.5 mph ESE4.0 kmh ESE 3.2 mph5.1 kmh 30.00 in1015.9 mb 0.00 in0.0 mm 0.00 in0.0 mm 0.04 in1.0 mm
09:33 PM 43.8°F6.6°C 32.8°F0.4°C 65% Calm Calm 3.2 mph5.1 kmh 30.00 in1015.9 mb 0.00 in0.0 mm 0.00 in0.0 mm 0.04 in1.0 mm
09:38 PM 43.6°F6.4°C 31.8°F-0.1°C 63% Calm Calm -- 30.00 in1015.9 mb 0.00 in0.0 mm 0.00 in0.0 mm 0.04 in1.0 mm
09:43 PM 43.6°F6.4°C 31.8°F-0.1°C 63% Calm Calm -- 30.00 in1015.9 mb 0.00 in0.0 mm 0.00 in0.0 mm 0.04 in1.0 mm
09:48 PM 43.2°F6.2°C 32.2°F0.1°C 65% Calm Calm -- 30.00 in1015.9 mb 0.00 in0.0 mm 0.00 in0.0 mm 0.04 in1.0 mm
09:54 PM 43.1°F6.2°C 31.0°F-0.6°C 62% 2.5 mph ESE4.0 kmh ESE 3.2 mph5.1 kmh 30.00 in1015.9 mb 0.00 in0.0 mm 0.00 in0.0 mm 0.04 in1.0 mm
09:59 PM 43.2°F6.2°C 31.1°F-0.5°C 62% Calm Calm 3.2 mph5.1 kmh 30.00 in1015.9 mb 0.00 in0.0 mm 0.00 in0.0 mm 0.04 in1.0 mm
10:04 PM 43.1°F6.2°C 33.3°F0.7°C 68% Calm Calm 1.8 mph2.9 kmh 30.00 in1015.9 mb 0.00 in0.0 mm 0.00 in0.0 mm 0.04 in1.0 mm
10:09 PM 42.7°F5.9°C 33.3°F0.7°C 69% Calm Calm -- 30.00 in1015.9 mb 0.00 in0.0 mm 0.00 in0.0 mm 0.04 in1.0 mm
10:15 PM 42.5°F5.8°C 32.0°F0.0°C 66% 2.4 mph ESE3.9 kmh ESE 3.2 mph5.1 kmh 30.00 in1015.9 mb 0.00 in0.0 mm 0.00 in0.0 mm 0.04 in1.0 mm
10:20 PM 42.5°F5.8°C 32.3°F0.2°C 67% Calm Calm 3.2 mph5.1 kmh 30.00 in1015.9 mb 0.00 in0.0 mm 0.00 in0.0 mm 0.04 in1.0 mm
10:25 PM 42.5°F5.8°C 33.4°F0.8°C 70% 4.0 mph ESE6.4 kmh ESE 4.0 mph6.4 kmh 30.03 in1016.9 mb 0.00 in0.0 mm 0.00 in0.0 mm 0.04 in1.0 mm
10:30 PM 42.5°F5.8°C 34.5°F1.4°C 73% Calm Calm 4.0 mph6.4 kmh 30.03 in1016.9 mb 0.00 in0.0 mm 0.00 in0.0 mm 0.04 in1.0 mm
10:35 PM 42.3°F5.7°C 33.6°F0.9°C 71% 2.6 mph ESE4.2 kmh ESE 3.2 mph5.1 kmh 30.03 in1016.9 mb 0.00 in0.0 mm 0.00 in0.0 mm 0.04 in1.0 mm
10:40 PM 42.3°F5.7°C 32.9°F0.5°C 69% 3.0 mph ESE4.8 kmh ESE 4.0 mph6.4 kmh 30.03 in1016.9 mb 0.00 in0.0 mm 0.00 in0.0 mm 0.04 in1.0 mm
10:45 PM 42.5°F5.8°C 33.4°F0.8°C 70% 2.0 mph ESE3.2 kmh ESE 4.0 mph6.4 kmh 30.03 in1016.9 mb 0.00 in0.0 mm 0.00 in0.0 mm 0.04 in1.0 mm
10:50 PM 42.7°F5.9°C 34.3°F1.3°C 72% Calm Calm 2.6 mph4.2 kmh 30.03 in1016.9 mb 0.00 in0.0 mm 0.00 in0.0 mm 0.04 in1.0 mm
10:55 PM 42.5°F5.8°C 34.1°F1.2°C 72% Calm Calm -- 30.03 in1016.9 mb 0.00 in0.0 mm 0.00 in0.0 mm 0.04 in1.0 mm
11:00 PM 42.7°F5.9°C 32.9°F0.5°C 68% 2.0 mph ESE3.2 kmh ESE 3.2 mph5.1 kmh 30.03 in1016.9 mb 0.00 in0.0 mm 0.00 in0.0 mm 0.04 in1.0 mm
11:06 PM 42.9°F6.1°C 33.1°F0.6°C 68% Calm Calm 3.2 mph5.1 kmh 30.03 in1016.9 mb 0.00 in0.0 mm 0.00 in0.0 mm 0.04 in1.0 mm
11:10 PM 43.1°F6.2°C 33.3°F0.7°C 68% Calm Calm -- 30.03 in1016.9 mb 0.00 in0.0 mm 0.00 in0.0 mm 0.04 in1.0 mm
11:16 PM 43.1°F6.2°C 33.3°F0.7°C 68% Calm Calm -- 30.03 in1016.9 mb 0.00 in0.0 mm 0.00 in0.0 mm 0.04 in1.0 mm
11:21 PM 43.2°F6.2°C 34.1°F1.2°C 70% Calm Calm -- 30.03 in1016.9 mb 0.00 in0.0 mm 0.00 in0.0 mm 0.04 in1.0 mm
11:26 PM 43.1°F6.2°C 34.0°F1.1°C 70% Calm Calm -- 30.03 in1016.9 mb 0.00 in0.0 mm 0.00 in0.0 mm 0.04 in1.0 mm
11:31 PM 43.4°F6.3°C 34.3°F1.3°C 70% 2.2 mph SSE3.5 kmh SSE 3.2 mph5.1 kmh 30.03 in1016.9 mb 0.00 in0.0 mm 0.00 in0.0 mm 0.04 in1.0 mm
11:36 PM 43.8°F6.6°C 32.4°F0.2°C 64% 3.4 mph S5.5 kmh S 5.0 mph8.0 kmh 30.03 in1016.9 mb 0.00 in0.0 mm 0.00 in0.0 mm 0.04 in1.0 mm
11:41 PM 44.0°F6.7°C 32.2°F0.1°C 63% 2.5 mph SSE4.0 kmh SSE 5.0 mph8.0 kmh 30.03 in1016.9 mb 0.00 in0.0 mm 0.00 in0.0 mm 0.04 in1.0 mm
11:47 PM 43.6°F6.4°C 31.8°F-0.1°C 63% 3.1 mph SE5.0 kmh SE 5.0 mph8.0 kmh 30.03 in1016.9 mb 0.00 in0.0 mm 0.00 in0.0 mm 0.04 in1.0 mm
11:52 PM 43.4°F6.3°C 31.7°F-0.2°C 63% 2.8 mph SE4.5 kmh SE 5.0 mph8.0 kmh 30.03 in1016.9 mb 0.00 in0.0 mm 0.00 in0.0 mm 0.04 in1.0 mm
11:57 PM 43.4°F6.3°C 31.3°F-0.4°C 62% Calm Calm 4.0 mph6.4 kmh 30.03 in1016.9 mb 0.00 in0.0 mm 0.00 in0.0 mm 0.04 in1.0 mm